• Join FlightAware (Why Join?)
  • Login
  • US Flag 
01:00AM EDT


 

Airport Tracker/Info


-or-


 

Live Flight TrackerFlight Track Log ✈ EJA831 ✈ 27-Apr-2013 ✈ KMQS - KHPN

Flight Track Log - Related Links

Times and Time Zones

All times are in EDT time to prevent confusion due to time zone crossing. See the EJA831 flight status page for this flight to view local times or setup timezone preferences in your user account.

Time Position Orientation Groundspeed Altitude Reporting Facility
EDT Latitude Longitude Course Direction KTS MPH feet Rate Location/Type
04:08PM 39.9333 -75.8500 165° South 261 300 4,000  Level Philadelphia TRACON
04:09PM 39.9500 -75.7667 75° East 249 287 4,000  Level Philadelphia TRACON
04:10PM 39.9667 -75.6833 75° East 251 289 4,000  Level Philadelphia TRACON
04:10PM 40.0167 -75.6333 37° Northeast 244 281 4,000  Level Philadelphia TRACON
04:11PM 40.0833 -75.6167 11° North 253 291 4,000  Level Philadelphia TRACON
04:12PM 40.1500 -75.5833 21° North 265 305 4,000  Level Philadelphia TRACON
04:13PM 40.2333 -75.5667 North 258 297 4,000 60 Level Philadelphia TRACON
04:15PM 40.2846 -75.5513 13° North  Level FlightAware Approximate
04:22PM 40.6143 -75.4716 North  Level FlightAware Approximate
04:23PM 40.6615 -75.4617 North  Level FlightAware Approximate
04:24PM 40.7087 -75.4517 North  Level FlightAware Approximate
04:24PM 40.8500 -75.0833 42° Northeast 259 298 5,100  Level New York TRACON
04:25PM 40.7447 -75.4127 45° Northeast  Level FlightAware Approximate
04:25PM 40.9000 -75.0167 45° Northeast 266 306 5,100  Level New York TRACON
04:26PM 40.7783 -75.3679 45° Northeast  Level FlightAware Approximate
04:26PM 40.9333 -74.9167 66° East 258 297 4,300  Level New York TRACON
04:27PM 40.8119 -75.3230 45° Northeast  Level FlightAware Approximate
04:27PM 40.9500 -74.8333 75° East 251 289 4,100  Level New York TRACON
04:28PM 40.8471 -75.2802 42° Northeast  Level FlightAware Approximate
04:28PM 40.9833 -74.7500 62° Northeast 241 277 4,100  Level New York TRACON
04:29PM 40.8826 -75.2378 42° Northeast  Level FlightAware Approximate
04:29PM 41.0167 -74.6667 62° Northeast 251 289 4,100  Level New York TRACON
04:30PM 41.0333 -74.5833 75° East 253 291 4,100  Level New York TRACON
04:31PM 41.0500 -74.5000 75° East 251 289 4,100  Level New York TRACON
04:32PM 41.0833 -74.4000 66° East 252 290 4,100  Level New York TRACON
04:33PM 41.1000 -74.3333 72° East 227 261 4,100 -540 Level New York TRACON
04:34PM 41.1333 -74.2500 62° Northeast 199 229 3,100 -540 Descending New York TRACON
04:35PM 41.1500 -74.1833 72° East 233 268 3,100  Level New York TRACON
04:36PM 41.1500 -74.1000 90° East 242 278 3,100  Level New York TRACON
04:37PM 41.1167 -74.0333 124° Southeast 249 287 3,100  Level New York TRACON
04:38PM 41.0667 -73.9667 135° Southeast 195 224 3,100  Level New York TRACON
04:39PM 41.0500 -73.9167 114° Southeast 186 214 3,100 -300 Level New York TRACON
04:40PM 41.0167 -73.8500 124° Southeast 191 220 2,600 -540 Descending New York TRACON
04:41PM 41.0000 -73.8000 114° Southeast 181 208 2,100 -300 Descending New York TRACON
04:42PM 41.0167 -73.7167 75° East 175 201 2,000 -600 Descending New York TRACON
04:43PM 41.0333 -73.6833 56° Northeast 141 162 1,000 -1,140 Descending New York TRACON
04:45PM 41.0669 -73.7076 236° Southwest  Level Estimated
04:52PM 41.0667 -73.7000 255° West  Level FlightAware Approximate
04:53PM 41.0669 -73.7076 255° West  Level Estimated